Time;durP1;ratioP1;P1;durP2;ratioP2;P2;SDS_P1;SDS_P2;PMS_P1;PMS_P2;Temp;Humidity;BMP_temperature;BMP_pressure;BME280_temperature;BME280_humidity;BME280_pressure;Samples;Min_cycle;Max_cycle;Signal;HPM_P1;HPM_P2
2022/11/11 00:00:19;;;;;;;14.40;10.60;;;;;;;;;;4994701;28;92485;-83
2022/11/11 00:03:04;;;;;;;18.33;11.10;;;;;;;;;;4998970;28;92494;-83
2022/11/11 00:05:49;;;;;;;22.45;11.07;;;;;;;;;;4992931;28;92824;-83
2022/11/11 00:08:34;;;;;;;21.75;12.10;;;;;;;;;;4995657;28;92648;-83
2022/11/11 00:11:19;;;;;;;23.52;11.98;;;;;;;;;;4995103;28;92455;-82
2022/11/11 00:14:04;;;;;;;19.67;11.60;;;;;;;;;;4997076;28;91673;-83
2022/11/11 00:26:17;;;;;;;20.60;11.95;;;;;;;;;;4999127;28;92585;-83
2022/11/11 00:29:22;;;;;;;25.80;14.18;;;;;;;;;;4975352;28;93453;-83
2022/11/11 00:32:23;;;;;;;20.30;14.05;;;;;;;;;;4981771;28;92662;-83
2022/11/11 00:41:17;;;;;;;27.77;14.80;;;;;;;;;;4992477;28;92605;-83
2022/11/11 00:44:03;;;;;;;26.42;15.20;;;;;;;;;;4996576;28;91664;-83
2022/11/11 00:52:56;;;;;;;28.65;17.63;;;;;;;;;;5000405;28;94822;-84
2022/11/11 00:55:41;;;;;;;27.27;17.05;;;;;;;;;;4977841;28;92677;-83
2022/11/11 00:58:27;;;;;;;22.20;15.15;;;;;;;;;;4977032;28;92433;-83
2022/11/11 01:01:12;;;;;;;28.63;17.10;;;;;;;;;;4986317;28;92728;-83
2022/11/11 01:03:58;;;;;;;20.25;18.00;;;;;;;;;;4998931;28;92781;-83
2022/11/11 01:06:42;;;;;;;23.90;17.38;;;;;;;;;;4997658;28;92467;-83
2022/11/11 01:09:27;;;;;;;24.13;18.30;;;;;;;;;;4997730;28;92504;-84
2022/11/11 01:12:12;;;;;;;29.48;18.23;;;;;;;;;;4999510;28;91934;-84
2022/11/11 01:14:56;;;;;;;22.38;18.27;;;;;;;;;;4996480;28;92452;-84
2022/11/11 01:17:41;;;;;;;31.40;19.35;;;;;;;;;;5000229;28;92478;-84
2022/11/11 01:20:26;;;;;;;23.83;17.45;;;;;;;;;;4994656;28;94869;-85
2022/11/11 01:23:12;;;;;;;26.50;18.10;;;;;;;;;;4996017;28;94820;-84
2022/11/11 01:26:02;;;;;;;27.58;20.45;;;;;;;;;;4986220;28;92663;-84
2022/11/11 01:28:48;;;;;;;27.58;19.42;;;;;;;;;;4978168;28;92315;-84
2022/11/11 01:31:32;;;;;;;26.60;19.52;;;;;;;;;;4976305;28;92366;-85
2022/11/11 01:34:17;;;;;;;30.42;21.75;;;;;;;;;;4996188;28;92542;-85
2022/11/11 01:37:03;;;;;;;29.95;21.27;;;;;;;;;;4977689;28;92778;-84
2022/11/11 01:39:47;;;;;;;26.83;20.38;;;;;;;;;;4976856;28;91702;-84
2022/11/11 01:42:45;;;;;;;34.33;22.33;;;;;;;;;;4995573;28;92681;-84
2022/11/11 01:45:44;;;;;;;28.88;22.27;;;;;;;;;;4998695;28;92381;-83
2022/11/11 01:51:38;;;;;;;28.65;21.67;;;;;;;;;;4996897;28;92477;-83
2022/11/11 01:54:31;;;;;;;34.67;22.75;;;;;;;;;;4996532;28;92430;-83
2022/11/11 01:57:35;;;;;;;41.28;24.10;;;;;;;;;;4997437;28;92655;-84
2022/11/11 02:00:21;;;;;;;27.15;23.00;;;;;;;;;;4998560;28;92325;-83
2022/11/11 02:03:08;;;;;;;36.83;23.23;;;;;;;;;;4997149;28;92428;-84
2022/11/11 02:05:55;;;;;;;34.60;23.52;;;;;;;;;;4996437;28;92693;-83
2022/11/11 02:08:42;;;;;;;35.70;25.10;;;;;;;;;;5001577;28;91769;-83
2022/11/11 02:14:34;;;;;;;45.67;24.25;;;;;;;;;;4997833;28;92571;-83
2022/11/11 02:17:19;;;;;;;32.60;23.15;;;;;;;;;;4992481;28;95148;-82
2022/11/11 02:20:07;;;;;;;35.05;25.30;;;;;;;;;;4994599;28;92552;-82
2022/11/11 02:22:59;;;;;;;35.85;26.45;;;;;;;;;;4995652;28;92458;-83
2022/11/11 02:25:46;;;;;;;38.58;25.50;;;;;;;;;;4994553;28;92440;-83
2022/11/11 02:28:32;;;;;;;39.45;27.55;;;;;;;;;;4995209;28;92546;-84
2022/11/11 02:31:17;;;;;;;42.88;26.20;;;;;;;;;;4996616;28;92530;-82
2022/11/11 02:34:02;;;;;;;30.27;24.55;;;;;;;;;;4981117;28;92462;-83
2022/11/11 02:36:47;;;;;;;40.08;26.90;;;;;;;;;;4976689;28;91577;-83
2022/11/11 02:39:34;;;;;;;31.25;24.35;;;;;;;;;;4975349;28;92363;-83
2022/11/11 02:42:39;;;;;;;37.58;25.27;;;;;;;;;;4987725;28;92427;-83
2022/11/11 02:45:24;;;;;;;37.58;25.33;;;;;;;;;;4991509;28;95029;-83
2022/11/11 02:48:09;;;;;;;31.85;24.02;;;;;;;;;;4994920;28;94823;-84
2022/11/11 02:50:54;;;;;;;40.35;24.85;;;;;;;;;;4995047;28;92981;-83
2022/11/11 02:53:39;;;;;;;31.92;23.88;;;;;;;;;;4994815;28;93187;-83
2022/11/11 02:59:27;;;;;;;36.58;24.75;;;;;;;;;;4994786;28;92416;-83
2022/11/11 03:02:12;;;;;;;38.88;26.10;;;;;;;;;;4995999;28;92507;-83
2022/11/11 03:04:58;;;;;;;33.67;24.65;;;;;;;;;;4994677;28;92879;-84
2022/11/11 03:07:43;;;;;;;40.13;25.55;;;;;;;;;;4992178;28;92550;-84
2022/11/11 03:10:28;;;;;;;36.78;26.58;;;;;;;;;;4995308;28;92516;-83
2022/11/11 03:13:13;;;;;;;38.10;25.98;;;;;;;;;;4979378;28;95003;-84
2022/11/11 03:15:58;;;;;;;38.75;23.98;;;;;;;;;;4994049;28;92328;-83
2022/11/11 03:18:43;;;;;;;35.65;24.23;;;;;;;;;;4994734;28;92579;-83
2022/11/11 03:21:29;;;;;;;37.10;25.95;;;;;;;;;;4998253;28;92658;-83
2022/11/11 03:27:39;;;;;;;37.40;25.30;;;;;;;;;;4996453;28;92547;-82
2022/11/11 03:30:24;;;;;;;38.13;27.23;;;;;;;;;;4994030;28;92708;-83
2022/11/11 03:33:10;;;;;;;39.25;25.73;;;;;;;;;;4994786;28;91692;-83
2022/11/11 03:35:55;;;;;;;36.38;26.27;;;;;;;;;;4978983;28;92871;-83
2022/11/11 03:38:40;;;;;;;33.13;26.05;;;;;;;;;;4992407;28;92359;-83
2022/11/11 03:41:25;;;;;;;34.25;24.27;;;;;;;;;;4993131;28;94808;-84
2022/11/11 03:44:09;;;;;;;39.85;24.20;;;;;;;;;;4994578;28;92584;-84
2022/11/11 03:46:54;;;;;;;37.08;24.45;;;;;;;;;;4996177;28;92414;-83
2022/11/11 03:49:39;;;;;;;38.22;25.02;;;;;;;;;;4991727;28;92675;-83
2022/11/11 03:52:24;;;;;;;32.30;24.77;;;;;;;;;;4995139;28;93103;-83
2022/11/11 03:55:09;;;;;;;34.50;24.70;;;;;;;;;;4993658;28;92528;-83
2022/11/11 03:57:54;;;;;;;39.90;24.92;;;;;;;;;;4993966;28;92697;-83
2022/11/11 04:00:39;;;;;;;38.17;23.55;;;;;;;;;;4995818;28;91579;-82
2022/11/11 04:16:04;;;;;;;38.88;25.40;;;;;;;;;;4996139;28;94003;-84
2022/11/11 04:21:49;;;;;;;34.88;26.25;;;;;;;;;;4998186;28;92593;-82
2022/11/11 04:27:38;;;;;;;35.03;23.50;;;;;;;;;;4998070;28;92661;-83
2022/11/11 04:30:22;;;;;;;34.92;22.83;;;;;;;;;;4995050;28;92185;-83
2022/11/11 04:33:07;;;;;;;34.45;23.40;;;;;;;;;;4988251;28;92294;-84
2022/11/11 04:35:52;;;;;;;42.10;22.80;;;;;;;;;;4978167;28;92485;-83
2022/11/11 04:41:43;;;;;;;38.17;21.88;;;;;;;;;;4981471;28;96369;-83
2022/11/11 04:47:55;;;;;;;31.25;20.92;;;;;;;;;;4996951;28;92232;-82
2022/11/11 04:50:40;;;;;;;26.27;20.45;;;;;;;;;;4998121;28;92487;-83
2022/11/11 04:53:26;;;;;;;32.95;21.88;;;;;;;;;;4993860;28;92435;-83
2022/11/11 04:59:15;;;;;;;27.88;21.05;;;;;;;;;;4998178;28;92471;-82
2022/11/11 05:05:04;;;;;;;28.52;21.35;;;;;;;;;;4999964;28;92416;-83
2022/11/11 05:10:54;;;;;;;27.25;21.25;;;;;;;;;;4997037;28;92611;-83
2022/11/11 05:22:54;;;;;;;32.33;19.83;;;;;;;;;;4961025;28;92560;-83
2022/11/11 05:25:39;;;;;;;27.83;21.05;;;;;;;;;;4996044;28;92695;-83
2022/11/11 05:28:23;;;;;;;27.48;20.20;;;;;;;;;;4997521;28;92424;-83
2022/11/11 05:31:08;;;;;;;29.58;19.55;;;;;;;;;;4994978;28;92728;-83
2022/11/11 05:33:53;;;;;;;33.03;19.77;;;;;;;;;;4995878;28;93077;-82
2022/11/11 05:36:38;;;;;;;30.80;20.00;;;;;;;;;;4994595;28;95008;-82
2022/11/11 05:39:23;;;;;;;29.85;20.90;;;;;;;;;;4996211;28;92476;-82
2022/11/11 05:42:08;;;;;;;29.27;19.83;;;;;;;;;;4996694;28;93145;-82
2022/11/11 05:44:53;;;;;;;26.40;20.23;;;;;;;;;;4997797;28;92533;-82
2022/11/11 05:47:37;;;;;;;32.33;19.80;;;;;;;;;;4996283;28;92646;-82
2022/11/11 05:50:22;;;;;;;27.60;18.48;;;;;;;;;;4995027;28;92590;-82
2022/11/11 05:53:07;;;;;;;27.10;18.90;;;;;;;;;;4999994;28;92475;-82
2022/11/11 05:55:52;;;;;;;29.50;20.25;;;;;;;;;;4995341;28;92256;-81
2022/11/11 05:58:37;;;;;;;33.63;20.50;;;;;;;;;;4995872;28;92316;-81
2022/11/11 06:01:22;;;;;;;26.90;18.02;;;;;;;;;;4996426;28;92246;-83
2022/11/11 06:04:07;;;;;;;31.00;18.60;;;;;;;;;;4992904;28;95271;-82
2022/11/11 06:06:51;;;;;;;26.75;20.10;;;;;;;;;;4995700;28;94716;-82
2022/11/11 06:09:36;;;;;;;23.95;18.70;;;;;;;;;;4995686;28;92654;-83
2022/11/11 06:12:21;;;;;;;28.85;18.92;;;;;;;;;;4996673;28;92423;-83
2022/11/11 06:15:06;;;;;;;32.53;19.80;;;;;;;;;;4995403;28;92509;-82
2022/11/11 06:17:51;;;;;;;30.90;21.42;;;;;;;;;;4998181;28;92891;-82
2022/11/11 06:20:36;;;;;;;26.48;20.90;;;;;;;;;;4996811;28;92785;-82
2022/11/11 06:23:21;;;;;;;32.63;20.98;;;;;;;;;;4992760;28;91652;-82
2022/11/11 06:26:12;;;;;;;28.83;20.98;;;;;;;;;;4993719;28;94073;-82
2022/11/11 06:28:57;;;;;;;26.08;20.48;;;;;;;;;;4996928;28;92438;-82
2022/11/11 06:31:41;;;;;;;31.58;21.25;;;;;;;;;;4992233;28;95072;-82
2022/11/11 06:34:26;;;;;;;33.10;21.45;;;;;;;;;;4976159;28;93031;-82
2022/11/11 06:37:11;;;;;;;31.27;20.40;;;;;;;;;;4977328;28;92479;-81
2022/11/11 06:39:56;;;;;;;35.92;21.60;;;;;;;;;;4974457;28;92683;-81
2022/11/11 06:42:41;;;;;;;24.95;19.10;;;;;;;;;;4998265;28;92448;-81
2022/11/11 06:45:26;;;;;;;32.28;21.60;;;;;;;;;;4995390;28;92899;-81
2022/11/11 06:48:11;;;;;;;34.08;21.42;;;;;;;;;;4994471;28;93280;-82
2022/11/11 06:51:01;;;;;;;35.50;21.27;;;;;;;;;;4994896;28;92453;-82
2022/11/11 06:53:46;;;;;;;36.80;22.65;;;;;;;;;;4995405;28;92689;-81
2022/11/11 06:56:31;;;;;;;27.77;20.98;;;;;;;;;;4994288;28;92343;-81
2022/11/11 06:59:16;;;;;;;34.67;22.45;;;;;;;;;;4993164;28;94724;-82
2022/11/11 07:02:02;;;;;;;36.85;22.38;;;;;;;;;;4982247;28;92713;-81
2022/11/11 07:04:47;;;;;;;30.17;22.90;;;;;;;;;;4988568;28;94161;-81
2022/11/11 07:07:32;;;;;;;31.35;22.27;;;;;;;;;;4990754;28;92934;-82
2022/11/11 07:10:17;;;;;;;35.72;23.00;;;;;;;;;;4993471;28;92525;-82
2022/11/11 07:13:02;;;;;;;26.55;21.52;;;;;;;;;;4990514;28;92532;-82
2022/11/11 07:15:47;;;;;;;30.50;22.20;;;;;;;;;;4984898;28;92573;-83
2022/11/11 07:18:32;;;;;;;27.88;22.20;;;;;;;;;;4981564;28;93820;-79
2022/11/11 07:21:17;;;;;;;27.83;22.65;;;;;;;;;;4990367;28;93631;-80
2022/11/11 07:24:02;;;;;;;31.10;21.50;;;;;;;;;;4994691;28;92650;-80
2022/11/11 07:26:47;;;;;;;33.95;22.88;;;;;;;;;;4992091;28;94878;-80
2022/11/11 07:29:32;;;;;;;33.08;22.45;;;;;;;;;;4996289;28;94906;-80
2022/11/11 07:32:19;;;;;;;32.17;23.15;;;;;;;;;;4993053;28;94156;-79
2022/11/11 07:35:04;;;;;;;30.83;22.58;;;;;;;;;;4993071;28;93563;-80
2022/11/11 07:37:49;;;;;;;28.10;22.50;;;;;;;;;;4994999;28;92343;-78
2022/11/11 07:40:34;;;;;;;31.70;21.65;;;;;;;;;;4988814;28;94010;-79
2022/11/11 07:43:20;;;;;;;37.53;22.38;;;;;;;;;;4994078;28;92395;-80
2022/11/11 07:46:05;;;;;;;31.08;20.92;;;;;;;;;;4993664;28;91932;-79
2022/11/11 07:48:51;;;;;;;27.88;19.85;;;;;;;;;;4989528;28;95536;-78
2022/11/11 07:51:37;;;;;;;31.27;21.40;;;;;;;;;;4991109;28;92507;-79
2022/11/11 07:54:22;;;;;;;29.77;19.73;;;;;;;;;;4997895;28;95093;-79
2022/11/11 07:57:07;;;;;;;30.88;20.70;;;;;;;;;;4992880;28;94818;-78
2022/11/11 07:59:51;;;;;;;28.30;19.92;;;;;;;;;;4994324;28;93726;-79
2022/11/11 08:02:45;;;;;;;21.92;18.58;;;;;;;;;;4991512;28;92315;-79
2022/11/11 08:05:30;;;;;;;25.92;17.25;;;;;;;;;;4972959;28;92473;-79
2022/11/11 08:08:15;;;;;;;27.95;19.10;;;;;;;;;;4984325;28;92660;-79
2022/11/11 08:10:59;;;;;;;29.65;19.80;;;;;;;;;;4994430;28;92972;-79
2022/11/11 08:13:44;;;;;;;28.02;20.67;;;;;;;;;;4993718;28;92502;-79
2022/11/11 08:16:29;;;;;;;33.67;19.52;;;;;;;;;;4990312;28;92847;-79
2022/11/11 08:19:14;;;;;;;25.25;19.75;;;;;;;;;;4995566;28;92543;-79
2022/11/11 08:21:58;;;;;;;26.60;19.55;;;;;;;;;;4990580;28;94775;-79
2022/11/11 08:24:43;;;;;;;24.17;19.52;;;;;;;;;;4992914;28;92472;-79
2022/11/11 08:27:47;;;;;;;24.77;18.98;;;;;;;;;;4991870;28;92533;-82
2022/11/11 08:30:34;;;;;;;23.92;18.00;;;;;;;;;;4993011;28;92693;-79
2022/11/11 08:33:19;;;;;;;24.35;18.08;;;;;;;;;;4991655;28;92959;-78
2022/11/11 08:36:22;;;;;;;25.45;17.13;;;;;;;;;;4992752;28;92531;-77
2022/11/11 08:39:07;;;;;;;27.40;18.88;;;;;;;;;;4991363;28;92661;-80
2022/11/11 08:41:51;;;;;;;26.63;18.48;;;;;;;;;;4994552;28;91804;-79
2022/11/11 08:44:36;;;;;;;20.17;17.17;;;;;;;;;;4995233;28;92319;-78
2022/11/11 08:47:23;;;;;;;22.95;18.35;;;;;;;;;;4992284;28;92347;-78
2022/11/11 08:50:08;;;;;;;23.20;17.98;;;;;;;;;;4990141;28;94822;-78
2022/11/11 08:52:53;;;;;;;23.60;18.50;;;;;;;;;;4991270;28;92758;-78
2022/11/11 08:55:38;;;;;;;24.33;18.15;;;;;;;;;;4991685;28;93469;-78
2022/11/11 08:58:23;;;;;;;24.33;18.00;;;;;;;;;;4993489;28;92716;-77
2022/11/11 09:01:12;;;;;;;25.27;18.63;;;;;;;;;;4991779;28;92662;-78
2022/11/11 09:03:57;;;;;;;22.23;17.23;;;;;;;;;;4992257;28;92508;-78
2022/11/11 09:07:02;;;;;;;21.70;16.90;;;;;;;;;;4998164;28;92417;-78
2022/11/11 09:09:52;;;;;;;21.65;16.15;;;;;;;;;;5001337;28;91672;-76
2022/11/11 09:12:42;;;;;;;21.25;17.02;;;;;;;;;;4997247;28;92388;-78
2022/11/11 09:15:27;;;;;;;20.33;16.33;;;;;;;;;;4997369;28;92737;-78
2022/11/11 09:18:13;;;;;;;19.75;17.25;;;;;;;;;;4984425;28;95519;-82
2022/11/11 09:21:00;;;;;;;20.15;15.23;;;;;;;;;;4974373;28;94140;-78
2022/11/11 09:23:47;;;;;;;20.90;16.05;;;;;;;;;;4975729;28;92710;-78
2022/11/11 09:26:32;;;;;;;18.63;15.43;;;;;;;;;;4987927;28;93492;-78
2022/11/11 09:29:17;;;;;;;27.20;16.00;;;;;;;;;;4977024;28;92567;-78
2022/11/11 09:32:02;;;;;;;18.52;15.52;;;;;;;;;;4975533;28;92730;-77
2022/11/11 09:34:47;;;;;;;25.02;16.70;;;;;;;;;;4978849;28;92870;-77
2022/11/11 09:37:32;;;;;;;25.70;16.13;;;;;;;;;;4976985;28;91962;-76
2022/11/11 09:40:20;;;;;;;21.42;17.00;;;;;;;;;;4977919;28;92432;-78
2022/11/11 09:43:04;;;;;;;19.35;16.75;;;;;;;;;;4976141;28;92494;-76
2022/11/11 09:46:12;;;;;;;22.60;16.45;;;;;;;;;;4991378;28;95056;-77
2022/11/11 09:49:14;;;;;;;16.95;15.23;;;;;;;;;;4994286;28;93077;-78
2022/11/11 09:52:02;;;;;;;29.48;17.05;;;;;;;;;;4977808;28;92507;-82
2022/11/11 09:54:51;;;;;;;19.75;14.73;;;;;;;;;;4989161;28;92700;-79
2022/11/11 09:57:38;;;;;;;18.73;16.55;;;;;;;;;;4995675;28;92633;-78
2022/11/11 10:00:24;;;;;;;20.75;16.15;;;;;;;;;;4976345;28;92582;-78
2022/11/11 10:03:17;;;;;;;19.73;16.08;;;;;;;;;;4976992;28;92585;-78
2022/11/11 10:06:12;;;;;;;20.10;16.05;;;;;;;;;;4976700;28;91680;-79
2022/11/11 10:09:13;;;;;;;22.27;17.20;;;;;;;;;;4976693;28;92686;-77
2022/11/11 10:12:14;;;;;;;18.67;16.50;;;;;;;;;;4958875;28;92387;-77
2022/11/11 10:15:02;;;;;;;19.35;15.82;;;;;;;;;;4972712;28;94828;-77
2022/11/11 10:18:05;;;;;;;23.27;16.08;;;;;;;;;;4991961;28;92546;-78
2022/11/11 10:20:54;;;;;;;17.55;15.13;;;;;;;;;;4975458;28;93126;-76
2022/11/11 10:23:41;;;;;;;18.25;15.38;;;;;;;;;;4978113;28;92420;-78
2022/11/11 10:26:37;;;;;;;16.98;15.15;;;;;;;;;;4987401;28;92330;-78
2022/11/11 10:29:25;;;;;;;18.48;16.40;;;;;;;;;;4987244;28;92498;-77
2022/11/11 10:32:15;;;;;;;16.80;15.05;;;;;;;;;;4996097;28;92640;-78
2022/11/11 10:35:26;;;;;;;20.90;15.30;;;;;;;;;;4994996;28;91559;-77
2022/11/11 10:38:33;;;;;;;19.98;15.13;;;;;;;;;;4996021;28;93433;-77
2022/11/11 10:41:20;;;;;;;17.02;14.93;;;;;;;;;;4993745;28;92735;-78
2022/11/11 10:44:19;;;;;;;16.92;15.02;;;;;;;;;;4992856;28;94728;-78
2022/11/11 10:47:19;;;;;;;23.63;15.27;;;;;;;;;;4993051;28;93705;-77
2022/11/11 10:50:13;;;;;;;17.50;15.35;;;;;;;;;;4996888;28;92594;-77
2022/11/11 10:53:12;;;;;;;20.27;14.77;;;;;;;;;;4996252;28;93117;-77
2022/11/11 10:56:16;;;;;;;17.17;14.85;;;;;;;;;;4993844;28;93039;-78
2022/11/11 10:59:05;;;;;;;19.98;15.43;;;;;;;;;;4992073;28;92397;-78
2022/11/11 11:02:00;;;;;;;19.60;15.80;;;;;;;;;;4994273;28;92410;-78
2022/11/11 11:05:12;;;;;;;24.75;15.38;;;;;;;;;;4994097;28;91572;-77
2022/11/11 11:07:59;;;;;;;15.35;13.70;;;;;;;;;;4975943;28;92435;-77
2022/11/11 11:10:49;;;;;;;19.70;14.77;;;;;;;;;;4973597;28;92524;-77
2022/11/11 11:13:40;;;;;;;17.10;15.25;;;;;;;;;;4973067;28;95630;-76
2022/11/11 11:16:28;;;;;;;16.13;14.45;;;;;;;;;;4984830;28;92641;-82
2022/11/11 11:19:15;;;;;;;17.38;15.63;;;;;;;;;;4995564;28;93925;-77
2022/11/11 11:22:01;;;;;;;18.08;15.30;;;;;;;;;;4993079;28;92507;-78
2022/11/11 11:24:46;;;;;;;18.92;15.10;;;;;;;;;;4995223;28;94153;-78
2022/11/11 11:27:31;;;;;;;18.17;15.57;;;;;;;;;;4991548;28;92707;-80
2022/11/11 11:30:21;;;;;;;19.95;15.27;;;;;;;;;;4995917;28;92420;-79
2022/11/11 11:33:07;;;;;;;16.15;14.32;;;;;;;;;;4993971;28;91788;-78
2022/11/11 11:35:53;;;;;;;17.88;13.98;;;;;;;;;;4992664;28;93147;-78
2022/11/11 11:38:40;;;;;;;19.63;12.73;;;;;;;;;;4992210;28;93377;-75
2022/11/11 11:41:55;;;;;;;17.52;14.98;;;;;;;;;;4991981;28;96233;-77
2022/11/11 11:44:42;;;;;;;16.88;13.73;;;;;;;;;;4991003;28;92666;-78
2022/11/11 11:47:33;;;;;;;16.85;13.48;;;;;;;;;;4985175;28;92671;-78
2022/11/11 11:50:27;;;;;;;15.85;14.30;;;;;;;;;;4986539;28;92750;-79
2022/11/11 11:53:23;;;;;;;18.02;13.30;;;;;;;;;;4993412;28;92593;-78
2022/11/11 11:56:38;;;;;;;14.95;13.10;;;;;;;;;;4990420;28;92515;-78
2022/11/11 11:59:27;;;;;;;14.88;12.25;;;;;;;;;;4973826;28;92683;-79
2022/11/11 12:02:14;;;;;;;18.85;13.18;;;;;;;;;;4995227;28;91608;-78
2022/11/11 12:04:59;;;;;;;13.55;12.20;;;;;;;;;;4992482;28;92437;-77
2022/11/11 12:08:15;;;;;;;21.45;13.50;;;;;;;;;;4995982;28;92548;-77
2022/11/11 12:11:04;;;;;;;14.05;12.48;;;;;;;;;;4991073;28;94793;-78
2022/11/11 12:14:04;;;;;;;14.95;11.68;;;;;;;;;;4989800;28;92671;-77
2022/11/11 12:16:52;;;;;;;14.40;12.07;;;;;;;;;;4994380;28;94539;-79
2022/11/11 12:19:43;;;;;;;17.80;12.55;;;;;;;;;;4982847;28;92470;-78
2022/11/11 12:22:40;;;;;;;13.70;10.85;;;;;;;;;;4993798;28;93503;-77
2022/11/11 12:25:47;;;;;;;14.43;12.38;;;;;;;;;;4972636;28;92384;-82
2022/11/11 12:28:32;;;;;;;15.52;11.90;;;;;;;;;;4945251;28;92607;-81
2022/11/11 12:31:35;;;;;;;14.38;12.45;;;;;;;;;;4979867;28;91839;-81
2022/11/11 12:34:20;;;;;;;;;;;;;;;;;;4985205;28;93957;-79
2022/11/11 12:37:14;;;;;;;18.75;11.80;;;;;;;;;;4992475;28;94663;-80
2022/11/11 12:40:05;;;;;;;13.73;11.70;;;;;;;;;;4992392;28;94818;-79
2022/11/11 12:42:59;;;;;;;14.27;12.77;;;;;;;;;;4996869;28;94858;-77
2022/11/11 12:45:46;;;;;;;13.20;11.80;;;;;;;;;;4998222;28;92694;-79
2022/11/11 12:48:50;;;;;;;22.15;12.50;;;;;;;;;;4996446;28;92367;-79
2022/11/11 12:51:37;;;;;;;22.83;12.70;;;;;;;;;;4995166;28;92511;-78
2022/11/11 12:54:40;;;;;;;21.23;13.10;;;;;;;;;;4998005;28;92663;-79
2022/11/11 12:57:33;;;;;;;27.92;12.88;;;;;;;;;;5000094;28;92530;-79
2022/11/11 13:00:19;;;;;;;15.23;12.43;;;;;;;;;;4998693;28;91917;-81
2022/11/11 13:03:27;;;;;;;18.52;13.07;;;;;;;;;;4992136;28;92543;-80
2022/11/11 13:06:32;;;;;;;16.02;12.95;;;;;;;;;;4971628;28;93197;-76
2022/11/11 13:09:30;;;;;;;20.80;12.50;;;;;;;;;;4991169;28;95067;-80
2022/11/11 13:12:26;;;;;;;16.95;13.50;;;;;;;;;;4996048;28;93233;-76
2022/11/11 13:15:14;;;;;;;18.80;13.75;;;;;;;;;;4995366;28;92475;-78
2022/11/11 13:17:59;;;;;;;15.95;13.60;;;;;;;;;;4995744;28;93335;-77
2022/11/11 13:20:49;;;;;;;14.80;13.23;;;;;;;;;;4996663;28;92342;-77
2022/11/11 13:23:37;;;;;;;15.45;13.93;;;;;;;;;;5000792;28;92423;-77
2022/11/11 13:26:29;;;;;;;19.33;14.30;;;;;;;;;;4983170;28;92534;-77
2022/11/11 13:29:17;;;;;;;16.70;12.50;;;;;;;;;;4981897;28;92538;-83
2022/11/11 13:32:04;;;;;;;17.05;13.95;;;;;;;;;;4996593;28;92434;-77
2022/11/11 13:34:51;;;;;;;15.32;13.68;;;;;;;;;;4993999;28;92471;-77
2022/11/11 13:37:36;;;;;;;17.10;14.38;;;;;;;;;;4992888;28;94791;-77
2022/11/11 13:40:35;;;;;;;16.33;14.68;;;;;;;;;;4977690;28;92517;-77
2022/11/11 13:43:23;;;;;;;17.30;13.75;;;;;;;;;;4998060;28;93285;-77
2022/11/11 13:46:28;;;;;;;19.67;14.68;;;;;;;;;;4999428;28;92482;-76
2022/11/11 13:49:30;;;;;;;21.02;14.30;;;;;;;;;;4999592;28;92363;-77
2022/11/11 13:52:21;;;;;;;18.67;13.65;;;;;;;;;;4996478;28;92491;-76
2022/11/11 13:55:23;;;;;;;18.52;13.77;;;;;;;;;;4994044;28;92649;-78
2022/11/11 13:58:22;;;;;;;14.88;13.30;;;;;;;;;;4996599;28;92273;-76
2022/11/11 14:01:10;;;;;;;16.10;12.85;;;;;;;;;;4993748;28;92334;-76
2022/11/11 14:03:58;;;;;;;14.85;13.00;;;;;;;;;;4975029;28;92661;-76
2022/11/11 14:06:46;;;;;;;15.27;12.88;;;;;;;;;;4972720;28;94764;-76
2022/11/11 14:09:50;;;;;;;15.30;12.70;;;;;;;;;;4975118;28;94884;-77
2022/11/11 14:12:40;;;;;;;14.82;13.25;;;;;;;;;;4975610;28;92683;-77
2022/11/11 14:15:31;;;;;;;14.65;12.60;;;;;;;;;;4979599;28;92343;-76
2022/11/11 14:18:16;;;;;;;17.02;13.18;;;;;;;;;;4974871;28;92737;-77
2022/11/11 14:21:00;;;;;;;16.65;13.18;;;;;;;;;;4976090;28;92881;-77
2022/11/11 14:23:55;;;;;;;17.23;12.23;;;;;;;;;;4976228;28;92450;-77
2022/11/11 14:26:40;;;;;;;15.95;12.15;;;;;;;;;;4975520;28;92101;-77
2022/11/11 14:29:33;;;;;;;13.90;12.35;;;;;;;;;;4972710;28;92285;-78
2022/11/11 14:32:35;;;;;;;16.92;11.98;;;;;;;;;;4977080;28;92612;-77
2022/11/11 14:35:39;;;;;;;14.05;11.95;;;;;;;;;;4974044;28;94997;-77
2022/11/11 14:38:41;;;;;;;13.43;11.20;;;;;;;;;;4977304;28;92408;-78
2022/11/11 14:41:47;;;;;;;12.43;11.13;;;;;;;;;;4996027;28;92551;-78
2022/11/11 14:44:41;;;;;;;12.25;10.90;;;;;;;;;;4992582;28;92399;-78
2022/11/11 14:47:29;;;;;;;19.58;11.98;;;;;;;;;;4996525;28;94266;-78
2022/11/11 14:50:29;;;;;;;13.10;11.07;;;;;;;;;;4995989;28;92692;-77
2022/11/11 14:53:18;;;;;;;12.25;10.38;;;;;;;;;;4994023;28;92907;-78
2022/11/11 14:56:12;;;;;;;16.17;10.27;;;;;;;;;;4994137;28;92519;-77
2022/11/11 14:59:02;;;;;;;16.70;10.25;;;;;;;;;;4992768;28;92697;-77
2022/11/11 15:01:47;;;;;;;10.93;9.63;;;;;;;;;;4993331;28;92463;-78
2022/11/11 15:04:35;;;;;;;13.50;9.52;;;;;;;;;;4995891;28;95247;-77
2022/11/11 15:07:24;;;;;;;13.35;8.52;;;;;;;;;;4993767;28;92310;-77
2022/11/11 15:10:21;;;;;;;11.02;9.45;;;;;;;;;;4996979;28;92464;-77
2022/11/11 15:13:25;;;;;;;10.80;8.90;;;;;;;;;;4992859;28;92987;-77
2022/11/11 15:16:10;;;;;;;12.43;9.25;;;;;;;;;;4994206;28;92424;-77
2022/11/11 15:18:55;;;;;;;14.57;9.55;;;;;;;;;;4994877;28;92679;-77
2022/11/11 15:22:01;;;;;;;12.55;10.23;;;;;;;;;;4992820;28;92648;-78
2022/11/11 15:24:52;;;;;;;11.35;9.93;;;;;;;;;;4994589;28;92406;-78
2022/11/11 15:27:53;;;;;;;17.42;10.55;;;;;;;;;;4991430;28;92471;-78
2022/11/11 15:30:59;;;;;;;11.65;9.60;;;;;;;;;;4995783;28;92509;-79
2022/11/11 15:33:50;;;;;;;14.65;10.32;;;;;;;;;;4991870;28;95226;-77
2022/11/11 15:36:35;;;;;;;11.27;9.48;;;;;;;;;;4993669;28;93165;-76
2022/11/11 15:39:23;;;;;;;10.43;9.43;;;;;;;;;;4988356;28;92336;-77
2022/11/11 15:42:27;;;;;;;13.27;9.93;;;;;;;;;;4992412;28;92907;-76
2022/11/11 15:45:17;;;;;;;15.25;10.23;;;;;;;;;;4996014;28;92664;-79
2022/11/11 15:48:02;;;;;;;14.07;10.32;;;;;;;;;;4993828;28;92380;-81
2022/11/11 15:50:47;;;;;;;17.58;10.05;;;;;;;;;;4994575;28;92655;-79
2022/11/11 15:53:32;;;;;;;14.30;10.93;;;;;;;;;;4995600;28;91929;-78
2022/11/11 15:56:31;;;;;;;14.52;10.65;;;;;;;;;;4995235;28;92483;-78
2022/11/11 15:59:17;;;;;;;15.80;10.52;;;;;;;;;;4992636;28;92578;-77
2022/11/11 16:02:06;;;;;;;19.92;10.93;;;;;;;;;;4984714;28;96286;-77
2022/11/11 16:04:58;;;;;;;12.77;10.18;;;;;;;;;;4990463;28;94867;-78
2022/11/11 16:07:43;;;;;;;17.83;12.33;;;;;;;;;;4990643;28;94419;-79
2022/11/11 16:10:33;;;;;;;18.17;11.60;;;;;;;;;;4982328;28;93279;-78
2022/11/11 16:13:24;;;;;;;15.15;11.25;;;;;;;;;;4972425;28;92491;-79
2022/11/11 16:16:12;;;;;;;19.10;11.02;;;;;;;;;;4975369;28;92702;-78
2022/11/11 16:19:04;;;;;;;15.93;10.55;;;;;;;;;;4977286;28;92366;-78
2022/11/11 16:21:51;;;;;;;16.67;9.85;;;;;;;;;;4990473;28;92562;-78
2022/11/11 16:24:38;;;;;;;13.45;9.82;;;;;;;;;;4999133;28;92561;-78
2022/11/11 16:27:26;;;;;;;13.63;9.90;;;;;;;;;;4996892;28;92458;-78
2022/11/11 16:30:16;;;;;;;15.48;9.40;;;;;;;;;;4975890;28;95426;-78
2022/11/11 16:33:01;;;;;;;11.77;8.88;;;;;;;;;;4979612;28;92455;-78
2022/11/11 16:35:47;;;;;;;13.73;9.55;;;;;;;;;;4996103;28;92483;-78
2022/11/11 16:38:32;;;;;;;13.52;9.73;;;;;;;;;;4997508;28;92665;-79
2022/11/11 16:41:25;;;;;;;14.75;9.80;;;;;;;;;;4998380;28;92410;-80
2022/11/11 16:44:28;;;;;;;12.77;10.23;;;;;;;;;;4996545;28;92483;-80
2022/11/11 16:47:29;;;;;;;12.45;9.77;;;;;;;;;;4998460;28;94673;-81
2022/11/11 16:50:20;;;;;;;17.73;10.10;;;;;;;;;;4996333;28;92574;-80
2022/11/11 16:53:06;;;;;;;13.25;10.02;;;;;;;;;;4975311;28;92629;-80
2022/11/11 16:55:51;;;;;;;15.30;10.27;;;;;;;;;;4975616;28;92488;-80
2022/11/11 16:58:39;;;;;;;13.95;10.90;;;;;;;;;;4974260;28;94867;-79
2022/11/11 17:01:28;;;;;;;18.23;11.27;;;;;;;;;;4990851;28;92658;-78
2022/11/11 17:04:13;;;;;;;17.92;9.88;;;;;;;;;;4985760;28;93057;-80
2022/11/11 17:06:58;;;;;;;11.98;10.48;;;;;;;;;;4985414;28;92545;-80
2022/11/11 17:09:44;;;;;;;15.27;9.55;;;;;;;;;;4994486;28;92654;-81
2022/11/11 17:12:30;;;;;;;18.50;9.68;;;;;;;;;;4992999;28;92873;-79
2022/11/11 17:15:15;;;;;;;12.27;10.23;;;;;;;;;;4975486;28;92661;-80
2022/11/11 17:18:00;;;;;;;18.20;10.80;;;;;;;;;;4988059;28;93433;-79
2022/11/11 17:20:45;;;;;;;13.55;10.88;;;;;;;;;;4990691;28;92576;-79
2022/11/11 17:23:31;;;;;;;20.98;13.27;;;;;;;;;;4991800;28;94375;-81
2022/11/11 17:26:19;;;;;;;24.15;16.40;;;;;;;;;;4982645;28;94916;-82
2022/11/11 17:29:04;;;;;;;20.05;11.85;;;;;;;;;;4994335;28;93901;-80
2022/11/11 17:31:48;;;;;;;15.88;10.75;;;;;;;;;;4988862;28;92687;-81
2022/11/11 17:34:36;;;;;;;14.63;10.68;;;;;;;;;;4989823;28;92484;-79
2022/11/11 17:37:22;;;;;;;17.70;10.35;;;;;;;;;;4990597;28;92551;-81
2022/11/11 17:40:08;;;;;;;13.27;10.80;;;;;;;;;;4990235;28;92701;-79
2022/11/11 17:42:53;;;;;;;14.18;10.77;;;;;;;;;;4989515;28;92516;-81